sensor_id;sensor_type;location;lat;lon;timestamp;pressure;altitude;pressure_sealevel;temperature;humidity
4735;BME280;2381;50.676;12.612;2022-10-26T00:01:14;97986.41;;;9.00;100.00
4735;BME280;2381;50.676;12.612;2022-10-26T00:04:17;97999.28;;;8.85;100.00
4735;BME280;2381;50.676;12.612;2022-10-26T00:07:21;98010.00;;;8.92;100.00
4735;BME280;2381;50.676;12.612;2022-10-26T00:10:24;98016.41;;;8.89;100.00
4735;BME280;2381;50.676;12.612;2022-10-26T00:13:33;98033.75;;;8.82;100.00
4735;BME280;2381;50.676;12.612;2022-10-26T00:16:36;98047.88;;;8.81;100.00
4735;BME280;2381;50.676;12.612;2022-10-26T00:19:39;98049.06;;;8.87;100.00
4735;BME280;2381;50.676;12.612;2022-10-26T00:22:43;98057.06;;;8.85;100.00
4735;BME280;2381;50.676;12.612;2022-10-26T00:25:53;98063.97;;;8.86;100.00
4735;BME280;2381;50.676;12.612;2022-10-26T00:28:56;98072.84;;;8.85;100.00
4735;BME280;2381;50.676;12.612;2022-10-26T00:31:59;98076.13;;;8.87;100.00
4735;BME280;2381;50.676;12.612;2022-10-26T00:35:02;98073.66;;;8.86;100.00
4735;BME280;2381;50.676;12.612;2022-10-26T00:38:25;98086.28;;;8.82;100.00
4735;BME280;2381;50.676;12.612;2022-10-26T00:41:29;98094.16;;;8.82;100.00
4735;BME280;2381;50.676;12.612;2022-10-26T00:44:57;98104.97;;;8.79;100.00
4735;BME280;2381;50.676;12.612;2022-10-26T00:48:05;98110.22;;;8.79;100.00
4735;BME280;2381;50.676;12.612;2022-10-26T00:51:14;98104.97;;;8.79;100.00
4735;BME280;2381;50.676;12.612;2022-10-26T00:54:19;98107.75;;;8.78;100.00
4735;BME280;2381;50.676;12.612;2022-10-26T00:57:23;98112.22;;;8.85;100.00
4735;BME280;2381;50.676;12.612;2022-10-26T01:00:26;98110.22;;;8.79;100.00
4735;BME280;2381;50.676;12.612;2022-10-26T01:03:30;98114.66;;;8.79;100.00
4735;BME280;2381;50.676;12.612;2022-10-26T01:06:34;98118.78;;;8.81;100.00
4735;BME280;2381;50.676;12.612;2022-10-26T01:09:39;98124.63;;;8.75;100.00
4735;BME280;2381;50.676;12.612;2022-10-26T01:12:43;98115.47;;;8.79;100.00
4735;BME280;2381;50.676;12.612;2022-10-26T01:15:51;98116.44;;;8.78;100.00
4735;BME280;2381;50.676;12.612;2022-10-26T01:19:08;98117.13;;;8.80;100.00
4735;BME280;2381;50.676;12.612;2022-10-26T01:22:23;98124.56;;;8.85;100.00
4735;BME280;2381;50.676;12.612;2022-10-26T01:25:42;98119.59;;;8.82;100.00
4735;BME280;2381;50.676;12.612;2022-10-26T01:29:10;98116.81;;;8.83;100.00
4735;BME280;2381;50.676;12.612;2022-10-26T01:32:22;98105.47;;;8.83;100.00
4735;BME280;2381;50.676;12.612;2022-10-26T01:35:28;98102.63;;;8.76;100.00
4735;BME280;2381;50.676;12.612;2022-10-26T01:38:42;98106.31;;;8.83;100.00
4735;BME280;2381;50.676;12.612;2022-10-26T01:41:50;98104.34;;;8.85;100.00
4735;BME280;2381;50.676;12.612;2022-10-26T01:44:56;98099.09;;;8.85;100.00
4735;BME280;2381;50.676;12.612;2022-10-26T01:48:03;98096.63;;;8.84;100.00
4735;BME280;2381;50.676;12.612;2022-10-26T01:51:08;98089.50;;;8.76;100.00
4735;BME280;2381;50.676;12.612;2022-10-26T01:54:12;98088.91;;;8.82;100.00
4735;BME280;2381;50.676;12.612;2022-10-26T01:57:17;98081.47;;;8.78;100.00
4735;BME280;2381;50.676;12.612;2022-10-26T02:00:21;98079.91;;;8.67;100.00
4735;BME280;2381;50.676;12.612;2022-10-26T02:03:28;98068.59;;;8.67;100.00
4735;BME280;2381;50.676;12.612;2022-10-26T02:06:41;98058.50;;;8.54;100.00
4735;BME280;2381;50.676;12.612;2022-10-26T02:09:55;98067.19;;;8.55;100.00
4735;BME280;2381;50.676;12.612;2022-10-26T02:13:09;98065.78;;;8.60;100.00
4735;BME280;2381;50.676;12.612;2022-10-26T02:16:22;98063.94;;;8.61;100.00
4735;BME280;2381;50.676;12.612;2022-10-26T02:19:32;98068.69;;;8.57;100.00
4735;BME280;2381;50.676;12.612;2022-10-26T02:22:40;98068.69;;;8.57;100.00
4735;BME280;2381;50.676;12.612;2022-10-26T02:25:46;98071.81;;;8.61;100.00
4735;BME280;2381;50.676;12.612;2022-10-26T02:28:55;98073.25;;;8.55;100.00
4735;BME280;2381;50.676;12.612;2022-10-26T02:32:01;98065.03;;;8.50;100.00
4735;BME280;2381;50.676;12.612;2022-10-26T02:35:06;98074.56;;;8.51;100.00
4735;BME280;2381;50.676;12.612;2022-10-26T02:38:11;98077.25;;;8.59;100.00
4735;BME280;2381;50.676;12.612;2022-10-26T02:41:15;98077.91;;;8.61;100.00
4735;BME280;2381;50.676;12.612;2022-10-26T02:44:22;98076.94;;;8.62;100.00
4735;BME280;2381;50.676;12.612;2022-10-26T02:47:27;98080.22;;;8.64;100.00
4735;BME280;2381;50.676;12.612;2022-10-26T02:50:38;98071.69;;;8.62;100.00
4735;BME280;2381;50.676;12.612;2022-10-26T02:53:49;98070.38;;;8.66;100.00
4735;BME280;2381;50.676;12.612;2022-10-26T02:56:57;98066.13;;;8.65;100.00
4735;BME280;2381;50.676;12.612;2022-10-26T03:00:02;98064.16;;;8.67;100.00
4735;BME280;2381;50.676;12.612;2022-10-26T03:03:05;98065.66;;;8.70;100.00
4735;BME280;2381;50.676;12.612;2022-10-26T03:06:10;98066.13;;;8.65;100.00
4735;BME280;2381;50.676;12.612;2022-10-26T03:09:12;98063.56;;;8.73;100.00
4735;BME280;2381;50.676;12.612;2022-10-26T03:12:16;98062.13;;;8.79;100.00
4735;BME280;2381;50.676;12.612;2022-10-26T03:15:19;98065.41;;;8.81;100.00
4735;BME280;2381;50.676;12.612;2022-10-26T03:18:22;98063.63;;;8.81;100.00
4735;BME280;2381;50.676;12.612;2022-10-26T03:21:26;98059.34;;;8.80;100.00
4735;BME280;2381;50.676;12.612;2022-10-26T03:24:29;98050.50;;;8.81;100.00
4735;BME280;2381;50.676;12.612;2022-10-26T03:27:32;98042.25;;;8.76;100.00
4735;BME280;2381;50.676;12.612;2022-10-26T03:30:35;98040.59;;;8.75;100.00
4735;BME280;2381;50.676;12.612;2022-10-26T03:33:38;98023.50;;;8.71;100.00
4735;BME280;2381;50.676;12.612;2022-10-26T03:36:42;98024.63;;;8.69;100.00
4735;BME280;2381;50.676;12.612;2022-10-26T03:39:45;98024.78;;;8.67;100.00
4735;BME280;2381;50.676;12.612;2022-10-26T03:42:48;98032.16;;;8.64;100.00
4735;BME280;2381;50.676;12.612;2022-10-26T03:45:52;98037.19;;;8.57;100.00
4735;BME280;2381;50.676;12.612;2022-10-26T03:48:55;98031.00;;;8.66;100.00
4735;BME280;2381;50.676;12.612;2022-10-26T03:51:59;98032.97;;;8.64;100.00
4735;BME280;2381;50.676;12.612;2022-10-26T03:55:02;98035.91;;;8.61;100.00
4735;BME280;2381;50.676;12.612;2022-10-26T03:58:05;98031.00;;;8.66;100.00
4735;BME280;2381;50.676;12.612;2022-10-26T04:01:08;98029.69;;;8.62;100.00
4735;BME280;2381;50.676;12.612;2022-10-26T04:04:11;98026.75;;;8.65;100.00
4735;BME280;2381;50.676;12.612;2022-10-26T04:07:16;98025.25;;;8.63;100.00
4735;BME280;2381;50.676;12.612;2022-10-26T04:10:19;98033.56;;;8.58;100.00
4735;BME280;2381;50.676;12.612;2022-10-26T04:13:22;98034.41;;;8.59;100.00
4735;BME280;2381;50.676;12.612;2022-10-26T04:16:25;98031.63;;;8.60;100.00
4735;BME280;2381;50.676;12.612;2022-10-26T04:19:33;98028.94;;;8.52;100.00
4735;BME280;2381;50.676;12.612;2022-10-26T04:22:38;98032.91;;;8.56;100.00
4735;BME280;2381;50.676;12.612;2022-10-26T04:25:42;98035.06;;;8.61;100.00
4735;BME280;2381;50.676;12.612;2022-10-26T04:28:45;98037.88;;;8.59;100.00
4735;BME280;2381;50.676;12.612;2022-10-26T04:31:48;98032.09;;;8.56;100.00
4735;BME280;2381;50.676;12.612;2022-10-26T04:34:51;98031.63;;;8.60;100.00
4735;BME280;2381;50.676;12.612;2022-10-26T04:38:01;98041.16;;;8.61;100.00
4735;BME280;2381;50.676;12.612;2022-10-26T04:41:04;98043.78;;;8.61;100.00
4735;BME280;2381;50.676;12.612;2022-10-26T04:44:07;98044.06;;;8.58;100.00
4735;BME280;2381;50.676;12.612;2022-10-26T04:47:10;98052.13;;;8.57;100.00
4735;BME280;2381;50.676;12.612;2022-10-26T04:50:13;98057.56;;;8.63;100.00
4735;BME280;2381;50.676;12.612;2022-10-26T04:53:17;98061.03;;;8.64;100.00
4735;BME280;2381;50.676;12.612;2022-10-26T04:56:20;98058.09;;;8.67;100.00
4735;BME280;2381;50.676;12.612;2022-10-26T04:59:23;98062.50;;;8.66;100.00
4735;BME280;2381;50.676;12.612;2022-10-26T05:02:27;98058.31;;;8.73;100.00
4735;BME280;2381;50.676;12.612;2022-10-26T05:05:31;98057.19;;;8.76;100.00
4735;BME280;2381;50.676;12.612;2022-10-26T05:08:36;98066.53;;;8.78;100.00
4735;BME280;2381;50.676;12.612;2022-10-26T05:11:39;98063.31;;;8.84;100.00
4735;BME280;2381;50.676;12.612;2022-10-26T05:14:42;98066.91;;;8.83;100.00
4735;BME280;2381;50.676;12.612;2022-10-26T05:17:45;98066.25;;;8.81;100.00
4735;BME280;2381;50.676;12.612;2022-10-26T05:20:51;98065.94;;;8.84;100.00
4735;BME280;2381;50.676;12.612;2022-10-26T05:23:55;98074.19;;;8.89;100.00
4735;BME280;2381;50.676;12.612;2022-10-26T05:26:58;98078.09;;;8.85;100.00
4735;BME280;2381;50.676;12.612;2022-10-26T05:30:01;98079.44;;;8.89;100.00
4735;BME280;2381;50.676;12.612;2022-10-26T05:33:05;98088.50;;;8.95;100.00
4735;BME280;2381;50.676;12.612;2022-10-26T05:36:08;98089.31;;;8.95;100.00
4735;BME280;2381;50.676;12.612;2022-10-26T05:39:12;98087.22;;;8.99;100.00
4735;BME280;2381;50.676;12.612;2022-10-26T05:42:15;98092.63;;;8.97;100.00
4735;BME280;2381;50.676;12.612;2022-10-26T05:45:18;98093.13;;;9.01;100.00
4735;BME280;2381;50.676;12.612;2022-10-26T05:48:21;98090.66;;;8.99;100.00
4735;BME280;2381;50.676;12.612;2022-10-26T05:51:24;98097.72;;;8.99;100.00
4735;BME280;2381;50.676;12.612;2022-10-26T05:54:29;98099.22;;;9.01;100.00
4735;BME280;2381;50.676;12.612;2022-10-26T05:57:33;98123.69;;;9.02;100.00
4735;BME280;2381;50.676;12.612;2022-10-26T06:00:40;98116.47;;;9.04;100.00
4735;BME280;2381;50.676;12.612;2022-10-26T06:03:59;98120.28;;;9.09;100.00
4735;BME280;2381;50.676;12.612;2022-10-26T06:07:10;98126.22;;;9.11;100.00
4735;BME280;2381;50.676;12.612;2022-10-26T06:10:16;98124.25;;;9.13;100.00
4735;BME280;2381;50.676;12.612;2022-10-26T06:13:20;98125.53;;;9.09;100.00
4735;BME280;2381;50.676;12.612;2022-10-26T06:16:32;98125.53;;;9.09;100.00
4735;BME280;2381;50.676;12.612;2022-10-26T06:19:48;98138.38;;;9.12;100.00
4735;BME280;2381;50.676;12.612;2022-10-26T06:23:06;98137.25;;;9.15;100.00
4735;BME280;2381;50.676;12.612;2022-10-26T06:26:20;98144.97;;;9.16;100.00
4735;BME280;2381;50.676;12.612;2022-10-26T06:29:37;98141.06;;;9.20;100.00
4735;BME280;2381;50.676;12.612;2022-10-26T06:32:48;98139.91;;;9.23;100.00
4735;BME280;2381;50.676;12.612;2022-10-26T06:36:20;98141.41;;;9.25;100.00
4735;BME280;2381;50.676;12.612;2022-10-26T06:39:24;98149.00;;;9.28;100.00
4735;BME280;2381;50.676;12.612;2022-10-26T06:42:31;98139.31;;;9.29;100.00
4735;BME280;2381;50.676;12.612;2022-10-26T06:45:35;98148.38;;;9.34;100.00
4735;BME280;2381;50.676;12.612;2022-10-26T06:48:46;98149.72;;;9.38;100.00
4735;BME280;2381;50.676;12.612;2022-10-26T06:51:54;98157.97;;;9.43;100.00
4735;BME280;2381;50.676;12.612;2022-10-26T06:54:59;98145.84;;;9.50;100.00
4735;BME280;2381;50.676;12.612;2022-10-26T06:58:04;98145.06;;;9.58;100.00
4735;BME280;2381;50.676;12.612;2022-10-26T07:01:10;98151.00;;;9.60;100.00
4735;BME280;2381;50.676;12.612;2022-10-26T07:04:14;98148.56;;;9.66;100.00
4735;BME280;2381;50.676;12.612;2022-10-26T07:07:19;98146.31;;;9.71;100.00
4735;BME280;2381;50.676;12.612;2022-10-26T07:10:22;98157.81;;;9.78;100.00
4735;BME280;2381;50.676;12.612;2022-10-26T07:13:26;98162.81;;;9.89;100.00
4735;BME280;2381;50.676;12.612;2022-10-26T07:16:29;98161.41;;;10.03;100.00
4735;BME280;2381;50.676;12.612;2022-10-26T07:19:32;98157.16;;;10.10;100.00
4735;BME280;2381;50.676;12.612;2022-10-26T07:22:35;98144.66;;;10.12;100.00
4735;BME280;2381;50.676;12.612;2022-10-26T07:25:38;98155.06;;;10.21;100.00
4735;BME280;2381;50.676;12.612;2022-10-26T07:28:43;98142.25;;;10.26;100.00
4735;BME280;2381;50.676;12.612;2022-10-26T07:31:45;98129.28;;;10.40;100.00
4735;BME280;2381;50.676;12.612;2022-10-26T07:34:48;98136.69;;;10.45;100.00
4735;BME280;2381;50.676;12.612;2022-10-26T07:37:55;98117.59;;;10.51;100.00
4735;BME280;2381;50.676;12.612;2022-10-26T07:40:58;98119.13;;;10.69;100.00
4735;BME280;2381;50.676;12.612;2022-10-26T07:44:02;98113.03;;;10.77;100.00
4735;BME280;2381;50.676;12.612;2022-10-26T07:47:05;98097.69;;;10.88;100.00
4735;BME280;2381;50.676;12.612;2022-10-26T07:50:09;98092.59;;;10.95;100.00
4735;BME280;2381;50.676;12.612;2022-10-26T07:53:12;98092.06;;;11.07;100.00
4735;BME280;2381;50.676;12.612;2022-10-26T07:56:15;98079.03;;;11.14;100.00
4735;BME280;2381;50.676;12.612;2022-10-26T07:59:20;98067.34;;;11.24;100.00
4735;BME280;2381;50.676;12.612;2022-10-26T08:02:23;98056.78;;;11.32;100.00
4735;BME280;2381;50.676;12.612;2022-10-26T08:05:26;98044.53;;;11.39;100.00
4735;BME280;2381;50.676;12.612;2022-10-26T08:08:29;98028.53;;;11.41;100.00
4735;BME280;2381;50.676;12.612;2022-10-26T08:11:32;98015.84;;;11.44;100.00
4735;BME280;2381;50.676;12.612;2022-10-26T08:14:38;98003.09;;;11.56;100.00
4735;BME280;2381;50.676;12.612;2022-10-26T08:17:41;97989.88;;;11.64;100.00
4735;BME280;2381;50.676;12.612;2022-10-26T08:20:44;97980.91;;;11.81;100.00
4735;BME280;2381;50.676;12.612;2022-10-26T08:23:47;97971.47;;;11.86;100.00
4735;BME280;2381;50.676;12.612;2022-10-26T08:26:50;97970.84;;;12.07;100.00
4735;BME280;2381;50.676;12.612;2022-10-26T08:29:55;97965.47;;;12.15;100.00
4735;BME280;2381;50.676;12.612;2022-10-26T08:32:59;97952.16;;;12.31;100.00
4735;BME280;2381;50.676;12.612;2022-10-26T08:36:04;97950.16;;;12.33;100.00
4735;BME280;2381;50.676;12.612;2022-10-26T08:39:07;97946.72;;;12.47;100.00
4735;BME280;2381;50.676;12.612;2022-10-26T08:42:13;97935.44;;;12.53;100.00
4735;BME280;2381;50.676;12.612;2022-10-26T08:45:23;97915.50;;;12.65;100.00
4735;BME280;2381;50.676;12.612;2022-10-26T08:48:38;97905.75;;;12.80;100.00
4735;BME280;2381;50.676;12.612;2022-10-26T08:51:42;97901.38;;;12.86;100.00
4735;BME280;2381;50.676;12.612;2022-10-26T08:54:49;97897.94;;;13.00;100.00
4735;BME280;2381;50.676;12.612;2022-10-26T08:57:53;97891.91;;;13.06;100.00
4735;BME280;2381;50.676;12.612;2022-10-26T09:00:59;97875.38;;;13.19;100.00
4735;BME280;2381;50.676;12.612;2022-10-26T09:04:02;97855.88;;;13.20;100.00
4735;BME280;2381;50.676;12.612;2022-10-26T09:07:13;97842.84;;;13.18;100.00
4735;BME280;2381;50.676;12.612;2022-10-26T09:10:36;97847.75;;;13.21;100.00
4735;BME280;2381;50.676;12.612;2022-10-26T09:13:49;97849.16;;;13.38;100.00
4735;BME280;2381;50.676;12.612;2022-10-26T09:17:09;97839.00;;;13.42;100.00
4735;BME280;2381;50.676;12.612;2022-10-26T09:20:23;97810.97;;;13.47;100.00
4735;BME280;2381;50.676;12.612;2022-10-26T09:23:46;97796.50;;;13.64;100.00
4735;BME280;2381;50.676;12.612;2022-10-26T09:26:55;97798.75;;;13.67;100.00
4735;BME280;2381;50.676;12.612;2022-10-26T09:30:10;97782.06;;;13.67;100.00
4735;BME280;2381;50.676;12.612;2022-10-26T09:33:16;97781.28;;;13.73;100.00
4735;BME280;2381;50.676;12.612;2022-10-26T09:36:21;97772.28;;;13.95;100.00
4735;BME280;2381;50.676;12.612;2022-10-26T09:39:35;97755.03;;;13.99;100.00
4735;BME280;2381;50.676;12.612;2022-10-26T09:42:45;97748.66;;;13.93;100.00
4735;BME280;2381;50.676;12.612;2022-10-26T09:45:51;97750.16;;;14.02;100.00
4735;BME280;2381;50.676;12.612;2022-10-26T09:48:58;97733.03;;;14.05;100.00
4735;BME280;2381;50.676;12.612;2022-10-26T09:52:02;97722.13;;;14.14;100.00
4735;BME280;2381;50.676;12.612;2022-10-26T09:55:09;97700.63;;;14.30;100.00
4735;BME280;2381;50.676;12.612;2022-10-26T09:58:16;97682.72;;;14.32;100.00
4735;BME280;2381;50.676;12.612;2022-10-26T10:01:22;97667.84;;;14.38;100.00
4735;BME280;2381;50.676;12.612;2022-10-26T10:04:31;97662.56;;;14.44;100.00
4735;BME280;2381;50.676;12.612;2022-10-26T10:07:34;97659.72;;;14.46;100.00
4735;BME280;2381;50.676;12.612;2022-10-26T10:10:53;97658.50;;;14.48;100.00
4735;BME280;2381;50.676;12.612;2022-10-26T10:14:05;97641.41;;;14.57;100.00
4735;BME280;2381;50.676;12.612;2022-10-26T10:17:18;97648.56;;;14.57;100.00
4735;BME280;2381;50.676;12.612;2022-10-26T10:20:31;97648.94;;;14.60;100.00
4735;BME280;2381;50.676;12.612;2022-10-26T10:23:36;97655.50;;;14.64;100.00
4735;BME280;2381;50.676;12.612;2022-10-26T10:26:55;97662.25;;;14.67;100.00
4735;BME280;2381;50.676;12.612;2022-10-26T10:30:18;97662.25;;;14.73;100.00
4735;BME280;2381;50.676;12.612;2022-10-26T10:33:22;97644.72;;;14.72;100.00
4735;BME280;2381;50.676;12.612;2022-10-26T10:36:34;97637.75;;;14.71;100.00
4735;BME280;2381;50.676;12.612;2022-10-26T10:39:39;97633.47;;;14.70;100.00
4735;BME280;2381;50.676;12.612;2022-10-26T10:42:44;97632.06;;;14.74;100.00
4735;BME280;2381;50.676;12.612;2022-10-26T10:45:51;97635.75;;;14.73;100.00
4735;BME280;2381;50.676;12.612;2022-10-26T10:49:01;97626.97;;;14.73;100.00
4735;BME280;2381;50.676;12.612;2022-10-26T10:52:06;97622.50;;;14.73;100.00
4735;BME280;2381;50.676;12.612;2022-10-26T10:55:16;97624.72;;;14.76;100.00
4735;BME280;2381;50.676;12.612;2022-10-26T10:58:24;97631.25;;;14.74;100.00
4735;BME280;2381;50.676;12.612;2022-10-26T11:01:31;97630.03;;;14.76;100.00
4735;BME280;2381;50.676;12.612;2022-10-26T11:05:04;97642.69;;;14.81;100.00
4735;BME280;2381;50.676;12.612;2022-10-26T11:08:18;97633.13;;;14.86;100.00
4735;BME280;2381;50.676;12.612;2022-10-26T11:11:26;97625.16;;;14.86;100.00
4735;BME280;2381;50.676;12.612;2022-10-26T11:14:36;97626.38;;;14.90;100.00
4735;BME280;2381;50.676;12.612;2022-10-26T11:17:46;97613.72;;;14.92;100.00
4735;BME280;2381;50.676;12.612;2022-10-26T11:20:59;97609.66;;;14.96;100.00
4735;BME280;2381;50.676;12.612;2022-10-26T11:24:12;97605.19;;;15.03;100.00
4735;BME280;2381;50.676;12.612;2022-10-26T11:27:20;97596.41;;;15.09;100.00
4735;BME280;2381;50.676;12.612;2022-10-26T11:30:26;97597.00;;;15.11;100.00
4735;BME280;2381;50.676;12.612;2022-10-26T11:33:37;97592.94;;;15.15;100.00
4735;BME280;2381;50.676;12.612;2022-10-26T11:36:45;97581.91;;;15.18;100.00
4735;BME280;2381;50.676;12.612;2022-10-26T11:40:01;97577.63;;;15.24;100.00
4735;BME280;2381;50.676;12.612;2022-10-26T11:43:10;97576.41;;;15.26;100.00
4735;BME280;2381;50.676;12.612;2022-10-26T11:46:17;97577.00;;;15.28;100.00
4735;BME280;2381;50.676;12.612;2022-10-26T11:49:27;97578.88;;;15.34;100.00
4735;BME280;2381;50.676;12.612;2022-10-26T11:52:37;97575.81;;;15.37;100.00
4735;BME280;2381;50.676;12.612;2022-10-26T11:55:45;97574.34;;;15.41;100.00
4735;BME280;2381;50.676;12.612;2022-10-26T11:58:51;97577.84;;;15.42;100.00
4735;BME280;2381;50.676;12.612;2022-10-26T12:02:00;97584.75;;;15.49;100.00
4735;BME280;2381;50.676;12.612;2022-10-26T12:05:07;97567.63;;;15.52;100.00
4735;BME280;2381;50.676;12.612;2022-10-26T12:08:22;97574.34;;;15.54;100.00
4735;BME280;2381;50.676;12.612;2022-10-26T12:11:35;97567.16;;;15.61;100.00
4735;BME280;2381;50.676;12.612;2022-10-26T12:14:43;97567.38;;;15.66;100.00
4735;BME280;2381;50.676;12.612;2022-10-26T12:17:50;97570.44;;;15.63;100.00
4735;BME280;2381;50.676;12.612;2022-10-26T12:20:57;97579.81;;;15.65;100.00
4735;BME280;2381;50.676;12.612;2022-10-26T12:24:29;97582.72;;;15.64;100.00
4735;BME280;2381;50.676;12.612;2022-10-26T12:27:51;97579.03;;;15.65;100.00
4735;BME280;2381;50.676;12.612;2022-10-26T12:34:59;97595.53;;;15.73;100.00
4735;BME280;2381;50.676;12.612;2022-10-26T12:41:55;97586.72;;;15.86;100.00
4735;BME280;2381;50.676;12.612;2022-10-26T12:45:20;97588.34;;;15.87;100.00
4735;BME280;2381;50.676;12.612;2022-10-26T12:48:38;97592.25;;;15.84;100.00
4735;BME280;2381;50.676;12.612;2022-10-26T12:51:41;97603.47;;;15.86;100.00
4735;BME280;2381;50.676;12.612;2022-10-26T12:54:53;97601.44;;;15.82;100.00
4735;BME280;2381;50.676;12.612;2022-10-26T13:01:55;97607.59;;;15.63;100.00
4735;BME280;2381;50.676;12.612;2022-10-26T13:05:23;97612.53;;;15.60;100.00
4735;BME280;2381;50.676;12.612;2022-10-26T13:08:38;97615.56;;;15.63;100.00
4735;BME280;2381;50.676;12.612;2022-10-26T13:11:45;97618.22;;;15.63;100.00
4735;BME280;2381;50.676;12.612;2022-10-26T13:14:58;97616.19;;;15.65;100.00
4735;BME280;2381;50.676;12.612;2022-10-26T13:18:09;97606.81;;;15.63;100.00
4735;BME280;2381;50.676;12.612;2022-10-26T13:21:19;97605.59;;;15.65;100.00
4735;BME280;2381;50.676;12.612;2022-10-26T13:24:25;97598.22;;;15.67;100.00
4735;BME280;2381;50.676;12.612;2022-10-26T13:27:43;97603.09;;;15.70;100.00
4735;BME280;2381;50.676;12.612;2022-10-26T13:30:46;97588.41;;;15.74;100.00
4735;BME280;2381;50.676;12.612;2022-10-26T13:33:55;97590.03;;;15.75;100.00
4735;BME280;2381;50.676;12.612;2022-10-26T13:37:15;97592.88;;;15.80;100.00
4735;BME280;2381;50.676;12.612;2022-10-26T13:40:23;97596.13;;;15.82;100.00
4735;BME280;2381;50.676;12.612;2022-10-26T13:43:27;97608.78;;;15.86;100.00
4735;BME280;2381;50.676;12.612;2022-10-26T13:46:34;97602.25;;;15.89;100.00
4735;BME280;2381;50.676;12.612;2022-10-26T13:49:41;97609.19;;;15.90;100.00
4735;BME280;2381;50.676;12.612;2022-10-26T13:52:48;97609.59;;;15.93;100.00
4735;BME280;2381;50.676;12.612;2022-10-26T13:55:57;97618.56;;;15.99;100.00
4735;BME280;2381;50.676;12.612;2022-10-26T13:59:04;97618.97;;;16.02;100.00
4735;BME280;2381;50.676;12.612;2022-10-26T14:02:16;97625.47;;;16.06;100.00
4735;BME280;2381;50.676;12.612;2022-10-26T14:05:21;97621.75;;;16.14;100.00
4735;BME280;2381;50.676;12.612;2022-10-26T14:08:24;97619.09;;;16.20;100.00
4735;BME280;2381;50.676;12.612;2022-10-26T14:11:32;97614.78;;;16.26;100.00
4735;BME280;2381;50.676;12.612;2022-10-26T14:14:37;97620.69;;;16.28;100.00
4735;BME280;2381;50.676;12.612;2022-10-26T14:17:40;97621.31;;;16.30;100.00
4735;BME280;2381;50.676;12.612;2022-10-26T14:20:51;97623.72;;;16.44;100.00
4735;BME280;2381;50.676;12.612;2022-10-26T14:23:58;97626.91;;;16.59;100.00
4735;BME280;2381;50.676;12.612;2022-10-26T14:27:13;97631.59;;;16.64;100.00
4735;BME280;2381;50.676;12.612;2022-10-26T14:30:22;97628.09;;;16.70;100.00
4735;BME280;2381;50.676;12.612;2022-10-26T14:33:26;97622.28;;;16.79;100.00
4735;BME280;2381;50.676;12.612;2022-10-26T14:36:36;97624.34;;;16.77;100.00
4735;BME280;2381;50.676;12.612;2022-10-26T14:39:44;97631.94;;;16.74;100.00
4735;BME280;2381;50.676;12.612;2022-10-26T14:42:50;97640.44;;;16.58;100.00
4735;BME280;2381;50.676;12.612;2022-10-26T14:45:55;97649.31;;;16.39;100.00
4735;BME280;2381;50.676;12.612;2022-10-26T14:48:59;97645.63;;;16.33;100.00
4735;BME280;2381;50.676;12.612;2022-10-26T14:52:05;97644.69;;;16.15;100.00
4735;BME280;2381;50.676;12.612;2022-10-26T14:55:13;97648.13;;;16.15;100.00
4735;BME280;2381;50.676;12.612;2022-10-26T14:58:20;97640.88;;;15.85;100.00
4735;BME280;2381;50.676;12.612;2022-10-26T15:01:30;97631.44;;;15.95;100.00
4735;BME280;2381;50.676;12.612;2022-10-26T15:04:38;97628.59;;;15.97;100.00
4735;BME280;2381;50.676;12.612;2022-10-26T15:07:43;97627.13;;;16.01;100.00
4735;BME280;2381;50.676;12.612;2022-10-26T15:10:47;97632.88;;;15.98;100.00
4735;BME280;2381;50.676;12.612;2022-10-26T15:13:50;97630.22;;;15.91;100.00
4735;BME280;2381;50.676;12.612;2022-10-26T15:16:56;97631.25;;;15.90;100.00
4735;BME280;2381;50.676;12.612;2022-10-26T15:20:02;97629.63;;;15.89;100.00
4735;BME280;2381;50.676;12.612;2022-10-26T15:23:13;97613.31;;;15.73;100.00
4735;BME280;2381;50.676;12.612;2022-10-26T15:26:16;97619.84;;;15.77;100.00
4735;BME280;2381;50.676;12.612;2022-10-26T15:29:33;97613.31;;;15.73;100.00
4735;BME280;2381;50.676;12.612;2022-10-26T15:32:37;97613.91;;;15.68;100.00
4735;BME280;2381;50.676;12.612;2022-10-26T15:35:41;97622.31;;;15.65;100.00
4735;BME280;2381;50.676;12.612;2022-10-26T15:38:47;97619.88;;;15.57;100.00
4735;BME280;2381;50.676;12.612;2022-10-26T15:41:50;97619.06;;;15.57;100.00
4735;BME280;2381;50.676;12.612;2022-10-26T15:44:54;97620.09;;;15.50;100.00
4735;BME280;2381;50.676;12.612;2022-10-26T15:47:58;97615.41;;;15.45;100.00
4735;BME280;2381;50.676;12.612;2022-10-26T15:51:02;97626.03;;;15.45;100.00
4735;BME280;2381;50.676;12.612;2022-10-26T15:54:08;97623.16;;;15.40;100.00
4735;BME280;2381;50.676;12.612;2022-10-26T15:57:12;97627.66;;;15.40;100.00
4735;BME280;2381;50.676;12.612;2022-10-26T16:00:21;97640.28;;;15.25;100.00
4735;BME280;2381;50.676;12.612;2022-10-26T16:03:25;97643.34;;;15.28;100.00
4735;BME280;2381;50.676;12.612;2022-10-26T16:06:30;97639.47;;;15.24;100.00
4735;BME280;2381;50.676;12.612;2022-10-26T16:09:35;97643.75;;;15.12;100.00
4735;BME280;2381;50.676;12.612;2022-10-26T16:12:38;97640.28;;;15.12;100.00
4735;BME280;2381;50.676;12.612;2022-10-26T16:15:41;97655.38;;;15.05;100.00
4735;BME280;2381;50.676;12.612;2022-10-26T16:18:46;97659.03;;;14.97;100.00
4735;BME280;2381;50.676;12.612;2022-10-26T16:21:50;97664.34;;;14.97;100.00
4735;BME280;2381;50.676;12.612;2022-10-26T16:24:54;97671.69;;;14.95;100.00
4735;BME280;2381;50.676;12.612;2022-10-26T16:27:57;97678.19;;;14.86;100.00
4735;BME280;2381;50.676;12.612;2022-10-26T16:31:01;97685.91;;;14.81;100.00
4735;BME280;2381;50.676;12.612;2022-10-26T16:34:04;97694.88;;;14.74;100.00
4735;BME280;2381;50.676;12.612;2022-10-26T16:37:07;97698.09;;;14.56;100.00
4735;BME280;2381;50.676;12.612;2022-10-26T16:40:12;97703.34;;;14.43;100.00
4735;BME280;2381;50.676;12.612;2022-10-26T16:43:15;97707.63;;;14.44;100.00
4735;BME280;2381;50.676;12.612;2022-10-26T16:46:20;97707.38;;;14.39;100.00
4735;BME280;2381;50.676;12.612;2022-10-26T16:49:23;97727.25;;;14.56;100.00